createdAt,value
2018-05-07T00:00:04.917Z,88.40
2018-05-07T00:02:32.659Z,88.40
2018-05-07T00:05:00.363Z,90.10
2018-05-07T00:07:27.841Z,88.10
2018-05-07T00:09:55.320Z,88.90
2018-05-07T00:12:22.780Z,90.80
2018-05-07T00:15:01.066Z,90.70
2018-05-07T00:17:28.519Z,91.20
2018-05-07T00:19:55.984Z,92.00
2018-05-07T00:22:23.499Z,92.50
2018-05-07T00:24:50.956Z,92.40
2018-05-07T00:27:18.431Z,92.20
2018-05-07T00:29:45.874Z,92.90
2018-05-07T00:32:20.427Z,92.90
2018-05-07T00:34:48.202Z,93.10
2018-05-07T00:37:15.686Z,93.90
2018-05-07T00:39:43.183Z,93.50
2018-05-07T00:42:10.645Z,93.80
2018-05-07T00:44:38.135Z,94.00
2018-05-07T00:47:05.595Z,93.90
2018-05-07T00:49:33.094Z,94.70
2018-05-07T00:52:00.547Z,95.40
2018-05-07T00:54:28.008Z,95.40
2018-05-07T00:56:57.384Z,96.00
2018-05-07T00:59:24.864Z,96.00
2018-05-07T01:01:52.330Z,96.50
2018-05-07T01:04:20.736Z,97.00
2018-05-07T01:06:48.226Z,97.30
2018-05-07T01:09:16.437Z,97.30
2018-05-07T01:11:43.936Z,97.30
2018-05-07T01:14:11.419Z,97.40
2018-05-07T01:16:39.801Z,97.90
2018-05-07T01:19:07.467Z,98.20
2018-05-07T01:21:34.917Z,98.10
2018-05-07T01:24:02.403Z,98.20
2018-05-07T01:26:29.868Z,98.20
2018-05-07T01:28:57.376Z,98.20
2018-05-07T01:31:28.345Z,98.30
2018-05-07T01:33:56.084Z,98.40
2018-05-07T01:36:23.662Z,98.70
2018-05-07T01:38:51.324Z,99.50
2018-05-07T01:41:18.794Z,99.90
2018-05-07T01:43:46.242Z,99.90
2018-05-07T01:46:13.734Z,99.90
2018-05-07T01:48:41.186Z,99.90
2018-05-07T01:51:08.683Z,99.90
2018-05-07T01:53:36.143Z,99.90
2018-05-07T01:56:03.624Z,99.90
2018-05-07T01:58:32.752Z,99.90
2018-05-07T02:01:00.463Z,99.90
2018-05-07T02:03:27.919Z,99.90
2018-05-07T02:05:55.376Z,99.90
2018-05-07T02:08:22.860Z,99.90
2018-05-07T02:10:51.169Z,99.90
2018-05-07T02:13:18.637Z,99.90
2018-05-07T02:15:46.102Z,99.90
2018-05-07T02:18:13.565Z,99.90
2018-05-07T02:20:41.044Z,99.90
2018-05-07T02:23:08.548Z,99.90
2018-05-07T02:25:36.038Z,99.90
2018-05-07T02:28:03.520Z,99.90
2018-05-07T02:30:30.979Z,99.90
2018-05-07T02:33:02.391Z,99.90
2018-05-07T02:35:29.835Z,99.90
2018-05-07T02:37:57.341Z,99.90
2018-05-07T02:40:24.785Z,99.90
2018-05-07T02:42:52.272Z,99.90
2018-05-07T02:45:22.885Z,99.90
2018-05-07T02:47:54.529Z,99.90
2018-05-07T02:50:21.986Z,99.90
2018-05-07T02:52:49.653Z,99.90
2018-05-07T02:55:17.148Z,99.90
2018-05-07T02:57:44.636Z,99.90
2018-05-07T03:00:12.089Z,99.90
2018-05-07T03:02:42.861Z,99.90
2018-05-07T03:05:10.324Z,99.90
2018-05-07T03:07:37.788Z,99.90
2018-05-07T03:10:05.255Z,99.90
2018-05-07T03:12:33.529Z,99.90
2018-05-07T03:15:01.030Z,99.90
2018-05-07T03:17:28.593Z,99.90
2018-05-07T03:19:56.005Z,99.90
2018-05-07T03:22:23.464Z,99.90
2018-05-07T03:24:51.124Z,99.90
2018-05-07T03:27:18.463Z,99.90
2018-05-07T03:29:45.933Z,99.90
2018-05-07T03:32:13.478Z,99.90
2018-05-07T03:34:41.608Z,99.90
2018-05-07T03:37:09.058Z,99.90
2018-05-07T03:39:36.560Z,99.90
2018-05-07T03:42:04.083Z,99.90
2018-05-07T03:44:32.041Z,99.90
2018-05-07T03:47:00.492Z,99.90
2018-05-07T03:49:27.948Z,99.90
2018-05-07T03:51:55.387Z,99.90
2018-05-07T03:54:22.856Z,99.90
2018-05-07T03:56:50.330Z,99.90
2018-05-07T03:59:17.810Z,99.90
2018-05-07T04:01:46.233Z,99.90
2018-05-07T04:04:19.448Z,99.90
2018-05-07T04:06:46.889Z,99.90
2018-05-07T04:09:15.009Z,99.90
2018-05-07T04:11:42.473Z,99.90
2018-05-07T04:14:09.957Z,99.90
2018-05-07T04:16:49.252Z,99.90
2018-05-07T04:19:32.451Z,99.90
2018-05-07T04:22:11.735Z,99.90
2018-05-07T04:24:39.241Z,99.90
2018-05-07T04:27:06.694Z,99.90
2018-05-07T04:29:35.016Z,99.90
2018-05-07T04:32:02.474Z,99.90
2018-05-07T04:34:34.480Z,99.90
2018-05-07T04:37:01.947Z,99.90
2018-05-07T04:39:30.281Z,99.90
2018-05-07T04:41:57.753Z,98.90
2018-05-07T04:44:25.236Z,96.70
2018-05-07T04:46:52.710Z,94.50
2018-05-07T04:49:20.931Z,91.00
2018-05-07T04:51:52.875Z,91.00
2018-05-07T04:54:20.379Z,90.00
2018-05-07T04:56:47.871Z,87.40
2018-05-07T04:59:16.102Z,82.10
2018-05-07T05:01:44.208Z,82.10
2018-05-07T05:04:11.676Z,79.80
2018-05-07T05:06:42.767Z,77.70
2018-05-07T05:09:10.238Z,75.00
2018-05-07T05:11:37.754Z,73.10
2018-05-07T05:14:05.189Z,72.00
2018-05-07T05:16:34.370Z,67.00
2018-05-07T05:19:02.614Z,65.80
2018-05-07T05:21:34.301Z,65.80
2018-05-07T05:24:01.763Z,63.70
2018-05-07T05:26:30.025Z,61.20
2018-05-07T05:28:57.535Z,61.20
2018-05-07T05:31:25.144Z,60.60
2018-05-07T05:33:53.547Z,60.70
2018-05-07T05:36:21.039Z,60.20
2018-05-07T05:38:48.622Z,59.70
2018-05-07T05:41:16.119Z,59.70
2018-05-07T05:43:44.378Z,58.70
2018-05-07T05:46:12.749Z,58.60
2018-05-07T05:48:40.227Z,58.40
2018-05-07T05:51:08.436Z,58.00
2018-05-07T05:53:35.902Z,58.00
2018-05-07T05:56:03.352Z,57.70
2018-05-07T05:58:30.835Z,57.40
2018-05-07T06:00:58.324Z,56.60
2018-05-07T06:03:26.505Z,56.80
2018-05-07T06:05:57.138Z,56.80
2018-05-07T06:08:25.372Z,58.50
2018-05-07T06:10:52.857Z,57.90
2018-05-07T06:13:20.313Z,57.20
2018-05-07T06:15:48.587Z,58.80
2018-05-07T06:18:16.111Z,58.80
2018-05-07T06:20:43.575Z,62.30
2018-05-07T06:23:15.062Z,65.40
2018-05-07T06:25:43.285Z,70.30
2018-05-07T06:28:10.943Z,70.20
2018-05-07T06:30:38.697Z,71.30
2018-05-07T06:33:06.158Z,72.50
2018-05-07T06:35:33.636Z,73.80
2018-05-07T06:38:01.159Z,75.10
2018-05-07T06:40:28.835Z,75.50
2018-05-07T06:42:56.299Z,76.00
2018-05-07T06:45:24.393Z,76.30
2018-05-07T06:47:52.545Z,76.20
2018-05-07T06:50:20.104Z,76.70
2018-05-07T06:52:47.575Z,76.80
2018-05-07T06:55:15.041Z,77.20
2018-05-07T06:57:42.515Z,77.40
2018-05-07T07:00:09.971Z,76.60
2018-05-07T07:02:38.414Z,76.80
2018-05-07T07:05:06.595Z,77.00
2018-05-07T07:07:37.777Z,76.90
2018-05-07T07:10:05.248Z,77.20
2018-05-07T07:12:34.229Z,77.50
2018-05-07T07:15:01.691Z,77.30
2018-05-07T07:17:29.177Z,77.80
2018-05-07T07:19:56.699Z,77.70
2018-05-07T07:22:28.043Z,76.90
2018-05-07T07:24:55.500Z,77.40
2018-05-07T07:27:23.745Z,77.30
2018-05-07T07:29:51.256Z,77.20
2018-05-07T07:32:19.024Z,76.50
2018-05-07T07:34:48.190Z,76.40
2018-05-07T07:37:15.777Z,76.40
2018-05-07T07:39:44.012Z,75.40
2018-05-07T07:42:12.481Z,75.80
2018-05-07T07:44:39.941Z,75.60
2018-05-07T07:47:07.706Z,75.50
2018-05-07T07:49:35.113Z,75.20
2018-05-07T07:52:02.589Z,75.40
2018-05-07T07:54:30.104Z,75.60
2018-05-07T07:56:57.568Z,75.90
2018-05-07T07:59:26.480Z,74.90
2018-05-07T08:01:53.922Z,74.70
2018-05-07T08:04:21.496Z,74.40
2018-05-07T08:06:48.892Z,74.00
2018-05-07T08:09:16.366Z,73.80
2018-05-07T08:11:44.748Z,74.20
2018-05-07T08:14:12.234Z,74.00
2018-05-07T08:16:39.720Z,73.50
2018-05-07T08:19:07.320Z,72.70
2018-05-07T08:21:34.821Z,72.70
2018-05-07T08:24:03.973Z,72.40
2018-05-07T08:26:31.456Z,72.30
2018-05-07T08:28:58.922Z,72.70
2018-05-07T08:31:26.399Z,71.80
2018-05-07T08:33:54.616Z,71.30
2018-05-07T08:36:23.038Z,71.20
2018-05-07T08:38:54.279Z,71.60
2018-05-07T08:41:21.722Z,71.40
2018-05-07T08:43:49.273Z,70.80
2018-05-07T08:46:16.759Z,70.50
2018-05-07T08:48:45.017Z,69.00
2018-05-07T08:51:12.544Z,68.90
2018-05-07T08:53:45.367Z,69.50
2018-05-07T08:56:12.926Z,69.50
2018-05-07T08:58:40.409Z,69.30
2018-05-07T09:01:08.680Z,69.50
2018-05-07T09:03:36.447Z,69.50
2018-05-07T09:06:03.899Z,69.00
2018-05-07T09:08:31.413Z,69.10
2018-05-07T09:10:58.882Z,68.70
2018-05-07T09:13:27.794Z,69.00
2018-05-07T09:15:55.276Z,69.00
2018-05-07T09:18:22.739Z,68.40
2018-05-07T09:20:50.204Z,68.00
2018-05-07T09:23:17.688Z,68.80
2018-05-07T09:25:46.078Z,67.40
2018-05-07T09:28:13.584Z,67.20
2018-05-07T09:30:41.060Z,67.00
2018-05-07T09:33:08.548Z,66.80
2018-05-07T09:35:36.007Z,66.90
2018-05-07T09:38:03.618Z,67.00
2018-05-07T09:40:31.094Z,66.90
2018-05-07T09:42:58.610Z,67.40
2018-05-07T09:45:26.617Z,67.70
2018-05-07T09:47:55.474Z,66.90
2018-05-07T09:50:24.624Z,66.50
2018-05-07T09:52:52.082Z,66.50
2018-05-07T09:55:24.342Z,66.50
2018-05-07T09:58:03.619Z,65.80
2018-05-07T10:00:34.356Z,65.40
2018-05-07T10:03:03.312Z,65.10
2018-05-07T10:05:30.852Z,65.00
2018-05-07T10:07:58.308Z,64.80
2018-05-07T10:10:30.504Z,63.00
2018-05-07T10:12:57.951Z,63.00
2018-05-07T10:15:25.603Z,63.00
2018-05-07T10:17:53.063Z,63.20
2018-05-07T10:20:21.534Z,63.40
2018-05-07T10:22:49.003Z,63.20
2018-05-07T10:25:20.824Z,64.10
2018-05-07T10:27:49.062Z,63.20
2018-05-07T10:30:16.821Z,63.20
2018-05-07T10:32:44.312Z,64.00
2018-05-07T10:35:11.857Z,62.60
2018-05-07T10:37:39.321Z,61.60
2018-05-07T10:40:12.106Z,60.90
2018-05-07T10:42:39.691Z,60.90
2018-05-07T10:45:07.181Z,60.90
2018-05-07T10:47:34.644Z,60.90
2018-05-07T10:50:02.294Z,60.50
2018-05-07T10:52:31.393Z,61.50
2018-05-07T10:54:59.031Z,61.50
2018-05-07T10:57:26.494Z,60.70
2018-05-07T10:59:53.984Z,60.40
2018-05-07T11:02:21.475Z,59.80
2018-05-07T11:04:48.956Z,60.40
2018-05-07T11:07:16.448Z,59.80
2018-05-07T11:09:44.628Z,58.60
2018-05-07T11:12:12.084Z,59.70
2018-05-07T11:14:39.544Z,59.40
2018-05-07T11:17:07.028Z,59.00
2018-05-07T11:19:36.111Z,60.10
2018-05-07T11:22:04.365Z,57.90
2018-05-07T11:24:31.850Z,58.00
2018-05-07T11:27:02.280Z,56.90
2018-05-07T11:29:29.737Z,56.80
2018-05-07T11:31:57.222Z,57.30
2018-05-07T11:34:24.707Z,57.00
2018-05-07T11:36:53.634Z,54.80
2018-05-07T11:39:21.794Z,54.80
2018-05-07T11:41:49.293Z,54.10
2018-05-07T11:44:16.974Z,53.90
2018-05-07T11:46:45.434Z,54.00
2018-05-07T11:49:12.974Z,54.20
2018-05-07T11:51:41.363Z,54.90
2018-05-07T11:54:09.617Z,53.40
2018-05-07T11:56:37.080Z,53.40
2018-05-07T11:59:04.580Z,53.40
2018-05-07T12:01:32.073Z,53.50
2018-05-07T12:03:59.610Z,52.30
2018-05-07T12:06:27.089Z,52.30
2018-05-07T12:08:54.575Z,52.10
2018-05-07T12:11:22.045Z,52.30
2018-05-07T12:13:49.548Z,52.40
2018-05-07T12:16:17.008Z,51.40
2018-05-07T12:18:45.418Z,51.60
2018-05-07T12:21:12.928Z,51.40
2018-05-07T12:23:40.418Z,52.20
2018-05-07T12:26:07.962Z,51.90
2018-05-07T12:28:35.441Z,52.10
2018-05-07T12:31:02.947Z,52.60
2018-05-07T12:33:30.403Z,51.10
2018-05-07T12:35:58.776Z,50.60
2018-05-07T12:38:26.293Z,50.90
2018-05-07T12:40:53.756Z,50.80
2018-05-07T12:43:25.584Z,50.40
2018-05-07T12:45:53.836Z,50.80
2018-05-07T12:48:21.380Z,50.80
2018-05-07T12:50:48.881Z,48.90
2018-05-07T12:53:16.349Z,48.40
2018-05-07T12:55:43.804Z,48.80
2018-05-07T12:58:15.293Z,48.90
2018-05-07T13:00:43.412Z,48.90
2018-05-07T13:03:10.900Z,48.30
2018-05-07T13:05:38.460Z,48.70
2018-05-07T13:08:06.057Z,48.80
2018-05-07T13:10:34.264Z,48.40
2018-05-07T13:13:06.348Z,48.30
2018-05-07T13:15:34.127Z,48.20
2018-05-07T13:18:02.834Z,48.10
2018-05-07T13:20:30.299Z,47.90
2018-05-07T13:22:58.577Z,48.50
2018-05-07T13:25:27.745Z,47.60
2018-05-07T13:27:59.423Z,47.60
2018-05-07T13:30:26.944Z,47.60
2018-05-07T13:32:54.753Z,47.60
2018-05-07T13:35:22.773Z,48.40
2018-05-07T13:37:50.585Z,48.50
2018-05-07T13:40:18.303Z,48.10
2018-05-07T13:42:45.761Z,47.40
2018-05-07T13:45:13.244Z,46.90
2018-05-07T13:47:41.613Z,47.00
2018-05-07T13:50:09.096Z,47.80
2018-05-07T13:52:36.552Z,46.70
2018-05-07T13:55:05.927Z,47.40
2018-05-07T13:57:33.407Z,47.30
2018-05-07T14:00:01.273Z,46.70
2018-05-07T14:02:28.741Z,45.60
2018-05-07T14:04:56.257Z,45.20
2018-05-07T14:07:24.644Z,45.00
2018-05-07T14:09:52.132Z,44.80
2018-05-07T14:12:20.128Z,44.20
2018-05-07T14:14:48.560Z,43.70
2018-05-07T14:17:16.036Z,44.10
2018-05-07T14:19:45.241Z,45.50
2018-05-07T14:22:12.951Z,45.50
2018-05-07T14:24:40.419Z,44.70
2018-05-07T14:27:07.893Z,44.90
2018-05-07T14:29:35.357Z,43.90
2018-05-07T14:32:02.935Z,43.40
2018-05-07T14:34:30.449Z,43.10
2018-05-07T14:36:58.882Z,43.20
2018-05-07T14:39:27.100Z,42.80
2018-05-07T14:41:54.616Z,42.80
2018-05-07T14:44:22.212Z,42.80
2018-05-07T14:46:49.775Z,43.40
2018-05-07T14:49:18.196Z,43.60
2018-05-07T14:51:45.682Z,43.30
2018-05-07T14:54:13.164Z,42.80
2018-05-07T14:56:41.527Z,42.60
2018-05-07T14:59:08.994Z,42.00
2018-05-07T15:01:37.407Z,42.30
2018-05-07T15:04:04.919Z,43.20
2018-05-07T15:06:33.316Z,41.90
2018-05-07T15:09:00.795Z,41.90
2018-05-07T15:11:28.301Z,41.10
2018-05-07T15:14:09.852Z,42.00
2018-05-07T15:16:37.327Z,41.70
2018-05-07T15:19:04.845Z,41.30
2018-05-07T15:21:33.223Z,41.10
2018-05-07T15:24:00.712Z,41.10
2018-05-07T15:26:28.214Z,41.60
2018-05-07T15:28:55.764Z,41.00
2018-05-07T15:31:23.984Z,40.70
2018-05-07T15:33:51.482Z,40.70
2018-05-07T15:36:19.294Z,41.40
2018-05-07T15:38:48.020Z,40.40
2018-05-07T15:41:15.578Z,40.30
2018-05-07T15:43:43.054Z,40.60
2018-05-07T15:46:10.590Z,40.90
2018-05-07T15:48:38.116Z,41.10
2018-05-07T15:51:06.249Z,40.50
2018-05-07T15:53:33.736Z,40.20
2018-05-07T15:56:01.220Z,40.00
2018-05-07T15:58:28.731Z,39.80
2018-05-07T16:01:01.643Z,40.00
2018-05-07T16:03:29.127Z,40.00
2018-05-07T16:05:56.641Z,39.40
2018-05-07T16:08:24.176Z,39.50
2018-05-07T16:10:51.623Z,39.80
2018-05-07T16:13:19.127Z,40.20
2018-05-07T16:15:46.843Z,40.20
2018-05-07T16:18:14.648Z,40.60
2018-05-07T16:20:42.179Z,40.50
2018-05-07T16:23:09.624Z,40.20
2018-05-07T16:25:37.896Z,40.20
2018-05-07T16:28:05.361Z,40.10
2018-05-07T16:30:32.844Z,38.50
2018-05-07T16:33:04.924Z,37.50
2018-05-07T16:35:32.430Z,36.50
2018-05-07T16:38:00.328Z,35.90
2018-05-07T16:40:27.828Z,35.60
2018-05-07T16:42:55.968Z,34.90
2018-05-07T16:45:24.307Z,34.00
2018-05-07T16:47:51.931Z,34.00
2018-05-07T16:50:19.415Z,34.00
2018-05-07T16:52:47.809Z,34.10
2018-05-07T16:55:15.420Z,34.40
2018-05-07T16:57:42.853Z,33.80
2018-05-07T17:00:10.313Z,33.90
2018-05-07T17:02:37.804Z,33.70
2018-05-07T17:05:05.275Z,34.00
2018-05-07T17:07:32.771Z,33.00
2018-05-07T17:10:02.693Z,32.90
2018-05-07T17:12:31.393Z,33.10
2018-05-07T17:14:58.880Z,33.10
2018-05-07T17:17:29.643Z,32.70
2018-05-07T17:19:57.154Z,32.10
2018-05-07T17:22:24.692Z,32.70
2018-05-07T17:24:52.859Z,32.90
2018-05-07T17:27:22.028Z,33.10
2018-05-07T17:29:50.311Z,33.00
2018-05-07T17:32:21.498Z,32.60
2018-05-07T17:34:49.001Z,32.90
2018-05-07T17:37:16.640Z,32.80
2018-05-07T17:39:44.866Z,33.20
2018-05-07T17:42:13.145Z,32.90
2018-05-07T17:44:53.118Z,32.90
2018-05-07T17:47:35.860Z,33.30
2018-05-07T17:50:04.250Z,33.40
2018-05-07T17:52:31.776Z,33.50
2018-05-07T17:55:00.176Z,33.90
2018-05-07T17:57:27.636Z,34.20
2018-05-07T17:59:55.139Z,34.00
2018-05-07T18:02:26.090Z,33.90
2018-05-07T18:04:53.591Z,33.10
2018-05-07T18:07:21.230Z,33.10
2018-05-07T18:09:49.588Z,34.00
2018-05-07T18:12:18.476Z,35.00
2018-05-07T18:14:46.219Z,35.00
2018-05-07T18:17:14.397Z,35.50
2018-05-07T18:19:41.902Z,36.10
2018-05-07T18:22:10.141Z,36.70
2018-05-07T18:24:38.053Z,37.70
2018-05-07T18:27:05.549Z,38.10
2018-05-07T18:29:33.653Z,38.80
2018-05-07T18:32:01.101Z,39.30
2018-05-07T18:34:28.560Z,39.90
2018-05-07T18:36:56.020Z,40.10
2018-05-07T18:39:24.269Z,41.00
2018-05-07T18:41:52.660Z,40.90
2018-05-07T18:44:21.010Z,41.30
2018-05-07T18:46:49.578Z,41.60
2018-05-07T18:49:17.793Z,41.90
2018-05-07T18:51:46.056Z,42.40
2018-05-07T18:54:13.538Z,42.40
2018-05-07T18:56:42.743Z,43.20
2018-05-07T18:59:10.223Z,43.20
2018-05-07T19:01:38.956Z,43.50
2018-05-07T19:04:07.377Z,43.90
2018-05-07T19:06:34.903Z,44.10
2018-05-07T19:09:03.135Z,44.60
2018-05-07T19:11:30.672Z,44.60
2018-05-07T19:13:58.467Z,44.90
2018-05-07T19:16:26.330Z,45.00
2018-05-07T19:18:53.856Z,45.10
2018-05-07T19:21:21.347Z,45.60
2018-05-07T19:23:48.868Z,45.60
2018-05-07T19:26:16.398Z,45.80
2018-05-07T19:28:43.888Z,46.00
2018-05-07T19:31:12.168Z,46.40
2018-05-07T19:33:39.741Z,46.40
2018-05-07T19:36:07.316Z,46.70
2018-05-07T19:38:34.839Z,47.10
2018-05-07T19:41:02.396Z,47.30
2018-05-07T19:43:30.201Z,47.50
2018-05-07T19:45:57.765Z,47.70
2018-05-07T19:48:25.326Z,47.80
2018-05-07T19:50:53.750Z,48.00
2018-05-07T19:53:21.289Z,48.30
2018-05-07T19:55:48.920Z,48.40
2018-05-07T19:58:16.363Z,48.90
2018-05-07T20:00:43.883Z,50.30
2018-05-07T20:03:11.481Z,49.70
2018-05-07T20:05:39.006Z,50.00
2018-05-07T20:08:07.237Z,51.10
2018-05-07T20:10:34.817Z,50.70
2018-05-07T20:13:02.457Z,51.50
2018-05-07T20:15:31.795Z,52.40
2018-05-07T20:17:59.258Z,52.30
2018-05-07T20:20:31.396Z,53.70
2018-05-07T20:22:59.019Z,53.60
2018-05-07T20:25:27.334Z,55.10
2018-05-07T20:27:54.823Z,55.90
2018-05-07T20:30:25.079Z,57.00
2018-05-07T20:32:52.643Z,56.80
2018-05-07T20:35:20.459Z,57.50
2018-05-07T20:37:48.048Z,57.70
2018-05-07T20:40:15.553Z,57.40
2018-05-07T20:42:43.079Z,58.10
2018-05-07T20:45:11.283Z,58.80
2018-05-07T20:47:38.736Z,58.30
2018-05-07T20:50:06.273Z,58.00
2018-05-07T20:52:33.761Z,58.00
2018-05-07T20:55:01.251Z,59.20
2018-05-07T20:57:28.857Z,60.20
2018-05-07T20:59:56.376Z,61.70
2018-05-07T21:02:24.823Z,61.60
2018-05-07T21:04:52.316Z,62.30
2018-05-07T21:07:19.860Z,61.90
2018-05-07T21:09:47.362Z,61.90
2018-05-07T21:12:14.808Z,62.20
2018-05-07T21:14:42.313Z,62.30
2018-05-07T21:17:10.592Z,62.60
2018-05-07T21:19:38.711Z,62.60
2018-05-07T21:22:06.230Z,62.00
2018-05-07T21:24:33.680Z,62.50
2018-05-07T21:27:01.197Z,61.90
2018-05-07T21:29:28.816Z,63.20
2018-05-07T21:31:56.585Z,62.00
2018-05-07T21:34:24.913Z,63.00
2018-05-07T21:36:52.401Z,62.40
2018-05-07T21:39:19.848Z,63.00
2018-05-07T21:41:47.623Z,63.80
2018-05-07T21:44:15.117Z,62.40
2018-05-07T21:46:43.356Z,63.30
2018-05-07T21:49:11.900Z,63.10
2018-05-07T21:51:39.593Z,62.80
2018-05-07T21:54:07.254Z,62.00
2018-05-07T21:56:34.742Z,63.60
2018-05-07T21:59:02.198Z,64.30
2018-05-07T22:01:29.719Z,64.50
2018-05-07T22:03:57.218Z,64.00
2018-05-07T22:06:35.989Z,65.00
2018-05-07T22:09:03.461Z,64.30
2018-05-07T22:11:32.659Z,64.60
2018-05-07T22:14:00.148Z,65.00
2018-05-07T22:16:27.803Z,66.60
2018-05-07T22:18:56.210Z,66.30
2018-05-07T22:21:23.665Z,66.80
2018-05-07T22:23:51.458Z,67.10
2018-05-07T22:26:19.018Z,67.60
2018-05-07T22:28:47.347Z,67.10
2018-05-07T22:31:15.580Z,66.40
2018-05-07T22:33:43.076Z,69.20
2018-05-07T22:36:10.561Z,68.70
2018-05-07T22:38:38.096Z,68.50
2018-05-07T22:41:05.571Z,69.60
2018-05-07T22:43:33.066Z,68.90
2018-05-07T22:46:00.602Z,69.20
2018-05-07T22:48:28.972Z,69.40
2018-05-07T22:50:56.713Z,69.70
2018-05-07T22:53:24.319Z,69.90
2018-05-07T22:55:51.817Z,69.80
2018-05-07T22:58:19.302Z,69.30
2018-05-07T23:00:47.647Z,70.50
2018-05-07T23:03:15.061Z,70.50
2018-05-07T23:05:43.210Z,70.70
2018-05-07T23:08:14.536Z,73.90
2018-05-07T23:10:42.049Z,73.90
2018-05-07T23:13:09.625Z,72.40
2018-05-07T23:15:37.112Z,74.90
2018-05-07T23:18:04.616Z,73.60
2018-05-07T23:20:33.635Z,73.70
2018-05-07T23:23:04.636Z,73.50
2018-05-07T23:25:32.105Z,73.30
2018-05-07T23:27:59.665Z,72.60
2018-05-07T23:30:27.797Z,73.80
2018-05-07T23:32:55.287Z,70.80
2018-05-07T23:35:22.760Z,71.60
2018-05-07T23:37:50.241Z,69.90
2018-05-07T23:40:17.951Z,70.80
2018-05-07T23:42:45.422Z,68.90
2018-05-07T23:45:13.203Z,69.30
2018-05-07T23:47:41.290Z,70.40
2018-05-07T23:50:08.781Z,68.90
2018-05-07T23:52:36.278Z,72.30
2018-05-07T23:55:03.732Z,73.00
2018-05-07T23:57:31.216Z,73.20
2018-05-07T23:59:58.707Z,72.30
